sensor_id;sensor_type;location;lat;lon;timestamp;temperature;humidity
73780;SHT30;62093;37.614;15.072;2023-06-14T00:02:09;21.67;68.45
73780;SHT30;62093;37.614;15.072;2023-06-14T00:04:35;21.67;68.47
73780;SHT30;62093;37.614;15.072;2023-06-14T00:07:02;21.68;68.45
73780;SHT30;62093;37.614;15.072;2023-06-14T00:09:27;21.64;68.46
73780;SHT30;62093;37.614;15.072;2023-06-14T00:11:53;21.67;68.49
73780;SHT30;62093;37.614;15.072;2023-06-14T00:14:19;21.64;68.46
73780;SHT30;62093;37.614;15.072;2023-06-14T00:16:45;21.67;68.49
73780;SHT30;62093;37.614;15.072;2023-06-14T00:19:11;21.65;68.46
73780;SHT30;62093;37.614;15.072;2023-06-14T00:21:38;21.65;68.51
73780;SHT30;62093;37.614;15.072;2023-06-14T00:24:04;21.65;68.53
73780;SHT30;62093;37.614;15.072;2023-06-14T00:26:30;21.65;68.53
73780;SHT30;62093;37.614;15.072;2023-06-14T00:28:56;21.64;68.54
73780;SHT30;62093;37.614;15.072;2023-06-14T00:31:23;21.65;68.53
73780;SHT30;62093;37.614;15.072;2023-06-14T00:33:48;21.64;68.52
73780;SHT30;62093;37.614;15.072;2023-06-14T00:36:14;21.64;68.55
73780;SHT30;62093;37.614;15.072;2023-06-14T00:38:41;21.64;68.57
73780;SHT30;62093;37.614;15.072;2023-06-14T00:41:08;21.65;68.56
73780;SHT30;62093;37.614;15.072;2023-06-14T00:43:34;21.64;68.57
73780;SHT30;62093;37.614;15.072;2023-06-14T00:46:00;21.62;68.58
73780;SHT30;62093;37.614;15.072;2023-06-14T00:48:27;21.64;68.58
73780;SHT30;62093;37.614;15.072;2023-06-14T00:50:54;21.64;68.57
73780;SHT30;62093;37.614;15.072;2023-06-14T00:53:20;21.64;68.55
73780;SHT30;62093;37.614;15.072;2023-06-14T00:55:48;21.64;68.59
73780;SHT30;62093;37.614;15.072;2023-06-14T00:58:16;21.62;68.58
73780;SHT30;62093;37.614;15.072;2023-06-14T01:00:42;21.67;68.57
73780;SHT30;62093;37.614;15.072;2023-06-14T01:03:08;21.65;68.58
73780;SHT30;62093;37.614;15.072;2023-06-14T01:05:38;21.62;68.58
73780;SHT30;62093;37.614;15.072;2023-06-14T01:08:12;21.62;68.56
73780;SHT30;62093;37.614;15.072;2023-06-14T01:11:10;21.64;68.58
73780;SHT30;62093;37.614;15.072;2023-06-14T01:13:39;21.62;68.58
73780;SHT30;62093;37.614;15.072;2023-06-14T01:16:07;21.62;68.56
73780;SHT30;62093;37.614;15.072;2023-06-14T01:18:33;21.61;68.53
73780;SHT30;62093;37.614;15.072;2023-06-14T01:21:01;21.61;68.61
73780;SHT30;62093;37.614;15.072;2023-06-14T01:23:32;21.62;68.58
73780;SHT30;62093;37.614;15.072;2023-06-14T01:25:59;21.58;68.62
73780;SHT30;62093;37.614;15.072;2023-06-14T01:28:27;21.61;68.57
73780;SHT30;62093;37.614;15.072;2023-06-14T01:31:01;21.58;68.58
73780;SHT30;62093;37.614;15.072;2023-06-14T01:33:31;21.59;68.56
73780;SHT30;62093;37.614;15.072;2023-06-14T01:35:57;21.62;68.57
73780;SHT30;62093;37.614;15.072;2023-06-14T01:38:25;21.59;68.62
73780;SHT30;62093;37.614;15.072;2023-06-14T01:40:53;21.58;68.58
73780;SHT30;62093;37.614;15.072;2023-06-14T01:43:20;21.59;68.58
73780;SHT30;62093;37.614;15.072;2023-06-14T01:45:47;21.59;68.63
73780;SHT30;62093;37.614;15.072;2023-06-14T01:48:19;21.57;68.60
73780;SHT30;62093;37.614;15.072;2023-06-14T01:50:45;21.57;68.63
73780;SHT30;62093;37.614;15.072;2023-06-14T01:53:11;21.59;68.62
73780;SHT30;62093;37.614;15.072;2023-06-14T01:55:37;21.59;68.67
73780;SHT30;62093;37.614;15.072;2023-06-14T01:58:06;21.57;68.66
73780;SHT30;62093;37.614;15.072;2023-06-14T02:00:32;21.58;68.65
73780;SHT30;62093;37.614;15.072;2023-06-14T02:02:58;21.57;68.69
73780;SHT30;62093;37.614;15.072;2023-06-14T02:05:26;21.57;68.69
73780;SHT30;62093;37.614;15.072;2023-06-14T02:07:52;21.57;68.66
73780;SHT30;62093;37.614;15.072;2023-06-14T02:10:19;21.57;68.66
73780;SHT30;62093;37.614;15.072;2023-06-14T02:12:46;21.55;68.63
73780;SHT30;62093;37.614;15.072;2023-06-14T02:15:12;21.57;68.75
73780;SHT30;62093;37.614;15.072;2023-06-14T02:17:46;21.57;68.76
73780;SHT30;62093;37.614;15.072;2023-06-14T02:20:16;21.55;68.75
73780;SHT30;62093;37.614;15.072;2023-06-14T02:22:42;21.53;68.75
73780;SHT30;62093;37.614;15.072;2023-06-14T02:25:08;21.55;68.72
73780;SHT30;62093;37.614;15.072;2023-06-14T02:27:35;21.54;68.77
73780;SHT30;62093;37.614;15.072;2023-06-14T02:30:03;21.54;68.80
73780;SHT30;62093;37.614;15.072;2023-06-14T02:32:32;21.53;68.81
73780;SHT30;62093;37.614;15.072;2023-06-14T02:34:59;21.51;68.80
73780;SHT30;62093;37.614;15.072;2023-06-14T02:37:25;21.53;68.82
73780;SHT30;62093;37.614;15.072;2023-06-14T02:39:52;21.53;68.82
73780;SHT30;62093;37.614;15.072;2023-06-14T02:42:18;21.51;68.83
73780;SHT30;62093;37.614;15.072;2023-06-14T02:44:44;21.51;68.85
73780;SHT30;62093;37.614;15.072;2023-06-14T02:47:12;21.50;68.86
73780;SHT30;62093;37.614;15.072;2023-06-14T02:49:37;21.51;68.85
73780;SHT30;62093;37.614;15.072;2023-06-14T02:52:03;21.50;68.90
73780;SHT30;62093;37.614;15.072;2023-06-14T02:54:30;21.50;68.91
73780;SHT30;62093;37.614;15.072;2023-06-14T02:56:58;21.48;68.95
73780;SHT30;62093;37.614;15.072;2023-06-14T02:59:24;21.46;68.96
73780;SHT30;62093;37.614;15.072;2023-06-14T03:01:52;21.48;68.87
73780;SHT30;62093;37.614;15.072;2023-06-14T03:04:19;21.48;68.84
73780;SHT30;62093;37.614;15.072;2023-06-14T03:06:45;21.46;68.97
73780;SHT30;62093;37.614;15.072;2023-06-14T03:09:17;21.46;68.97
73780;SHT30;62093;37.614;15.072;2023-06-14T03:11:45;21.48;68.91
73780;SHT30;62093;37.614;15.072;2023-06-14T03:14:11;21.47;68.98
73780;SHT30;62093;37.614;15.072;2023-06-14T03:16:39;21.47;68.99
73780;SHT30;62093;37.614;15.072;2023-06-14T03:19:08;21.50;68.96
73780;SHT30;62093;37.614;15.072;2023-06-14T03:21:34;21.44;68.98
73780;SHT30;62093;37.614;15.072;2023-06-14T03:24:03;21.44;69.03
73780;SHT30;62093;37.614;15.072;2023-06-14T03:26:30;21.46;69.06
73780;SHT30;62093;37.614;15.072;2023-06-14T03:28:58;21.46;69.05
73780;SHT30;62093;37.614;15.072;2023-06-14T03:31:23;21.46;69.07
73780;SHT30;62093;37.614;15.072;2023-06-14T03:33:50;21.44;69.09
73780;SHT30;62093;37.614;15.072;2023-06-14T03:36:17;21.47;69.11
73780;SHT30;62093;37.614;15.072;2023-06-14T03:38:44;21.44;69.09
73780;SHT30;62093;37.614;15.072;2023-06-14T03:41:11;21.47;69.07
73780;SHT30;62093;37.614;15.072;2023-06-14T03:43:37;21.46;69.12
73780;SHT30;62093;37.614;15.072;2023-06-14T03:46:03;21.43;69.16
73780;SHT30;62093;37.614;15.072;2023-06-14T03:48:32;21.44;69.10
73780;SHT30;62093;37.614;15.072;2023-06-14T03:50:57;21.43;69.18
73780;SHT30;62093;37.614;15.072;2023-06-14T03:53:23;21.43;69.12
73780;SHT30;62093;37.614;15.072;2023-06-14T03:55:50;21.41;69.18
73780;SHT30;62093;37.614;15.072;2023-06-14T03:58:20;21.46;69.19
73780;SHT30;62093;37.614;15.072;2023-06-14T04:00:46;21.43;69.16
73780;SHT30;62093;37.614;15.072;2023-06-14T04:03:12;21.43;69.16
73780;SHT30;62093;37.614;15.072;2023-06-14T04:05:41;21.40;69.21
73780;SHT30;62093;37.614;15.072;2023-06-14T04:08:08;21.41;69.20
73780;SHT30;62093;37.614;15.072;2023-06-14T04:10:36;21.43;69.17
73780;SHT30;62093;37.614;15.072;2023-06-14T04:13:02;21.43;69.15
73780;SHT30;62093;37.614;15.072;2023-06-14T04:15:29;21.43;69.19
73780;SHT30;62093;37.614;15.072;2023-06-14T04:17:56;21.41;69.23
73780;SHT30;62093;37.614;15.072;2023-06-14T04:20:23;21.41;69.24
73780;SHT30;62093;37.614;15.072;2023-06-14T04:22:52;21.41;69.21
73780;SHT30;62093;37.614;15.072;2023-06-14T04:25:19;21.44;69.25
73780;SHT30;62093;37.614;15.072;2023-06-14T04:27:46;21.43;69.24
73780;SHT30;62093;37.614;15.072;2023-06-14T04:30:13;21.41;69.26
73780;SHT30;62093;37.614;15.072;2023-06-14T04:32:45;21.41;69.25
73780;SHT30;62093;37.614;15.072;2023-06-14T04:35:12;21.43;69.26
73780;SHT30;62093;37.614;15.072;2023-06-14T04:37:42;21.41;69.29
73780;SHT30;62093;37.614;15.072;2023-06-14T04:40:10;21.41;69.30
73780;SHT30;62093;37.614;15.072;2023-06-14T04:42:37;21.41;69.33
73780;SHT30;62093;37.614;15.072;2023-06-14T04:45:06;21.41;69.31
73780;SHT30;62093;37.614;15.072;2023-06-14T04:47:33;21.44;69.29
73780;SHT30;62093;37.614;15.072;2023-06-14T04:50:00;21.41;69.30
73780;SHT30;62093;37.614;15.072;2023-06-14T04:52:29;21.41;69.30
73780;SHT30;62093;37.614;15.072;2023-06-14T04:54:56;21.40;69.30
73780;SHT30;62093;37.614;15.072;2023-06-14T04:57:23;21.43;69.32
73780;SHT30;62093;37.614;15.072;2023-06-14T04:59:52;21.41;69.32
73780;SHT30;62093;37.614;15.072;2023-06-14T05:02:24;21.40;69.31
73780;SHT30;62093;37.614;15.072;2023-06-14T05:04:53;21.40;69.31
73780;SHT30;62093;37.614;15.072;2023-06-14T05:07:19;21.41;69.35
73780;SHT30;62093;37.614;15.072;2023-06-14T05:09:47;21.40;69.34
73780;SHT30;62093;37.614;15.072;2023-06-14T05:12:13;21.43;69.34
73780;SHT30;62093;37.614;15.072;2023-06-14T05:14:39;21.41;69.34
73780;SHT30;62093;37.614;15.072;2023-06-14T05:17:06;21.38;69.37
73780;SHT30;62093;37.614;15.072;2023-06-14T05:19:32;21.40;69.36
73780;SHT30;62093;37.614;15.072;2023-06-14T05:21:57;21.38;69.38
73780;SHT30;62093;37.614;15.072;2023-06-14T05:24:23;21.40;69.38
73780;SHT30;62093;37.614;15.072;2023-06-14T05:26:49;21.40;69.34
73780;SHT30;62093;37.614;15.072;2023-06-14T05:29:15;21.40;69.32
73780;SHT30;62093;37.614;15.072;2023-06-14T05:31:41;21.40;69.34
73780;SHT30;62093;37.614;15.072;2023-06-14T05:34:06;21.41;69.33
73780;SHT30;62093;37.614;15.072;2023-06-14T05:36:32;21.38;69.48
73780;SHT30;62093;37.614;15.072;2023-06-14T05:38:58;21.43;69.39
73780;SHT30;62093;37.614;15.072;2023-06-14T05:41:28;21.41;69.40
73780;SHT30;62093;37.614;15.072;2023-06-14T05:43:55;21.41;69.38
73780;SHT30;62093;37.614;15.072;2023-06-14T05:46:22;21.43;69.35
73780;SHT30;62093;37.614;15.072;2023-06-14T05:48:51;21.43;69.32
73780;SHT30;62093;37.614;15.072;2023-06-14T05:51:17;21.41;69.29
73780;SHT30;62093;37.614;15.072;2023-06-14T05:53:46;21.44;69.30
73780;SHT30;62093;37.614;15.072;2023-06-14T05:56:13;21.44;69.33
73780;SHT30;62093;37.614;15.072;2023-06-14T05:58:40;21.47;69.33
73780;SHT30;62093;37.614;15.072;2023-06-14T06:01:06;21.46;69.33
73780;SHT30;62093;37.614;15.072;2023-06-14T06:03:32;21.47;69.37
73780;SHT30;62093;37.614;15.072;2023-06-14T06:05:58;21.47;69.33
73780;SHT30;62093;37.614;15.072;2023-06-14T06:08:24;21.48;69.34
73780;SHT30;62093;37.614;15.072;2023-06-14T06:10:50;21.46;69.33
73780;SHT30;62093;37.614;15.072;2023-06-14T06:13:16;21.48;69.34
73780;SHT30;62093;37.614;15.072;2023-06-14T06:15:41;21.47;69.32
73780;SHT30;62093;37.614;15.072;2023-06-14T06:18:07;21.48;69.33
73780;SHT30;62093;37.614;15.072;2023-06-14T06:20:33;21.47;69.33
73780;SHT30;62093;37.614;15.072;2023-06-14T06:23:00;21.47;69.33
73780;SHT30;62093;37.614;15.072;2023-06-14T06:25:26;21.50;69.32
73780;SHT30;62093;37.614;15.072;2023-06-14T06:27:54;21.50;69.30
73780;SHT30;62093;37.614;15.072;2023-06-14T06:30:21;21.46;69.31
73780;SHT30;62093;37.614;15.072;2023-06-14T06:32:48;21.48;69.32
73780;SHT30;62093;37.614;15.072;2023-06-14T06:35:14;21.50;69.29
73780;SHT30;62093;37.614;15.072;2023-06-14T06:37:41;21.51;69.31
73780;SHT30;62093;37.614;15.072;2023-06-14T06:40:08;21.48;69.32
73780;SHT30;62093;37.614;15.072;2023-06-14T06:42:34;21.50;69.27
73780;SHT30;62093;37.614;15.072;2023-06-14T06:45:03;21.53;69.28
73780;SHT30;62093;37.614;15.072;2023-06-14T06:47:29;21.53;69.26
73780;SHT30;62093;37.614;15.072;2023-06-14T06:49:55;21.53;69.27
73780;SHT30;62093;37.614;15.072;2023-06-14T06:52:21;21.53;69.26
73780;SHT30;62093;37.614;15.072;2023-06-14T06:54:47;21.53;69.24
73780;SHT30;62093;37.614;15.072;2023-06-14T06:57:13;21.51;69.24
73780;SHT30;62093;37.614;15.072;2023-06-14T06:59:39;21.53;69.23
73780;SHT30;62093;37.614;15.072;2023-06-14T07:02:05;21.51;69.24
73780;SHT30;62093;37.614;15.072;2023-06-14T07:04:31;21.54;69.23
73780;SHT30;62093;37.614;15.072;2023-06-14T07:06:57;21.54;69.24
73780;SHT30;62093;37.614;15.072;2023-06-14T07:09:23;21.53;69.21
73780;SHT30;62093;37.614;15.072;2023-06-14T07:11:50;21.55;69.22
73780;SHT30;62093;37.614;15.072;2023-06-14T07:14:16;21.57;69.23
73780;SHT30;62093;37.614;15.072;2023-06-14T07:16:42;21.55;69.21
73780;SHT30;62093;37.614;15.072;2023-06-14T07:19:08;21.55;69.23
73780;SHT30;62093;37.614;15.072;2023-06-14T07:21:35;21.57;69.20
73780;SHT30;62093;37.614;15.072;2023-06-14T07:24:05;21.58;69.20
73780;SHT30;62093;37.614;15.072;2023-06-14T07:26:32;21.58;69.20
73780;SHT30;62093;37.614;15.072;2023-06-14T07:28:58;21.57;69.19
73780;SHT30;62093;37.614;15.072;2023-06-14T07:31:23;21.59;69.16
73780;SHT30;62093;37.614;15.072;2023-06-14T07:33:49;21.58;69.15
73780;SHT30;62093;37.614;15.072;2023-06-14T07:36:15;21.58;69.14
73780;SHT30;62093;37.614;15.072;2023-06-14T07:38:40;21.58;69.16
73780;SHT30;62093;37.614;15.072;2023-06-14T07:41:07;21.58;69.14
73780;SHT30;62093;37.614;15.072;2023-06-14T07:43:33;21.58;69.11
73780;SHT30;62093;37.614;15.072;2023-06-14T07:45:58;21.61;69.11
73780;SHT30;62093;37.614;15.072;2023-06-14T07:48:24;21.61;69.10
73780;SHT30;62093;37.614;15.072;2023-06-14T07:50:50;21.59;69.05
73780;SHT30;62093;37.614;15.072;2023-06-14T07:53:16;21.61;69.08
73780;SHT30;62093;37.614;15.072;2023-06-14T07:55:41;21.61;69.04
73780;SHT30;62093;37.614;15.072;2023-06-14T07:58:08;21.62;69.03
73780;SHT30;62093;37.614;15.072;2023-06-14T08:00:34;21.62;69.05
73780;SHT30;62093;37.614;15.072;2023-06-14T08:03:00;21.61;69.04
73780;SHT30;62093;37.614;15.072;2023-06-14T08:05:27;21.64;69.02
73780;SHT30;62093;37.614;15.072;2023-06-14T08:07:53;21.64;69.01
73780;SHT30;62093;37.614;15.072;2023-06-14T08:10:20;21.64;69.01
73780;SHT30;62093;37.614;15.072;2023-06-14T08:12:46;21.64;68.99
73780;SHT30;62093;37.614;15.072;2023-06-14T08:15:12;21.68;68.97
73780;SHT30;62093;37.614;15.072;2023-06-14T08:17:37;21.65;68.97
73780;SHT30;62093;37.614;15.072;2023-06-14T08:20:04;21.65;68.94
73780;SHT30;62093;37.614;15.072;2023-06-14T08:22:31;21.68;68.96
73780;SHT30;62093;37.614;15.072;2023-06-14T08:25:00;21.65;68.94
73780;SHT30;62093;37.614;15.072;2023-06-14T08:27:26;21.67;68.95
73780;SHT30;62093;37.614;15.072;2023-06-14T08:29:52;21.65;68.93
73780;SHT30;62093;37.614;15.072;2023-06-14T08:32:18;21.68;68.91
73780;SHT30;62093;37.614;15.072;2023-06-14T08:34:44;21.68;68.91
73780;SHT30;62093;37.614;15.072;2023-06-14T08:37:10;21.68;68.90
73780;SHT30;62093;37.614;15.072;2023-06-14T08:39:36;21.65;68.88
73780;SHT30;62093;37.614;15.072;2023-06-14T08:42:03;21.68;68.89
73780;SHT30;62093;37.614;15.072;2023-06-14T08:44:30;21.71;68.89
73780;SHT30;62093;37.614;15.072;2023-06-14T08:46:56;21.68;68.88
73780;SHT30;62093;37.614;15.072;2023-06-14T08:49:25;21.69;68.86
73780;SHT30;62093;37.614;15.072;2023-06-14T08:51:58;21.69;68.83
73780;SHT30;62093;37.614;15.072;2023-06-14T08:54:26;21.69;68.82
73780;SHT30;62093;37.614;15.072;2023-06-14T08:56:53;21.69;68.81
73780;SHT30;62093;37.614;15.072;2023-06-14T08:59:26;21.71;68.80
73780;SHT30;62093;37.614;15.072;2023-06-14T09:01:53;21.71;68.82
73780;SHT30;62093;37.614;15.072;2023-06-14T09:04:23;21.71;68.80
73780;SHT30;62093;37.614;15.072;2023-06-14T09:06:50;21.73;68.82
73780;SHT30;62093;37.614;15.072;2023-06-14T09:09:22;21.73;68.76
73780;SHT30;62093;37.614;15.072;2023-06-14T09:11:52;21.71;68.78
73780;SHT30;62093;37.614;15.072;2023-06-14T09:14:18;21.73;68.76
73780;SHT30;62093;37.614;15.072;2023-06-14T09:16:44;21.73;68.75
73780;SHT30;62093;37.614;15.072;2023-06-14T09:19:20;21.73;68.78
73780;SHT30;62093;37.614;15.072;2023-06-14T09:21:47;21.71;68.75
73780;SHT30;62093;37.614;15.072;2023-06-14T09:24:13;21.75;68.73
73780;SHT30;62093;37.614;15.072;2023-06-14T09:26:39;21.75;68.69
73780;SHT30;62093;37.614;15.072;2023-06-14T09:29:06;21.77;68.73
73780;SHT30;62093;37.614;15.072;2023-06-14T09:31:32;21.74;68.69
73780;SHT30;62093;37.614;15.072;2023-06-14T09:34:02;21.75;68.71
73780;SHT30;62093;37.614;15.072;2023-06-14T09:36:28;21.75;68.71
73780;SHT30;62093;37.614;15.072;2023-06-14T09:38:59;21.77;68.69
73780;SHT30;62093;37.614;15.072;2023-06-14T09:41:41;21.77;68.70
73780;SHT30;62093;37.614;15.072;2023-06-14T09:44:09;21.74;68.74
73780;SHT30;62093;37.614;15.072;2023-06-14T09:46:36;21.75;68.74
73780;SHT30;62093;37.614;15.072;2023-06-14T09:49:03;21.77;68.71
73780;SHT30;62093;37.614;15.072;2023-06-14T09:51:30;21.78;68.67
73780;SHT30;62093;37.614;15.072;2023-06-14T09:54:00;21.75;68.69
73780;SHT30;62093;37.614;15.072;2023-06-14T09:56:28;21.78;68.69
73780;SHT30;62093;37.614;15.072;2023-06-14T09:58:58;21.78;68.66
73780;SHT30;62093;37.614;15.072;2023-06-14T10:01:26;21.78;68.70
73780;SHT30;62093;37.614;15.072;2023-06-14T10:04:05;21.78;68.81
73780;SHT30;62093;37.614;15.072;2023-06-14T10:06:32;21.81;68.75
73780;SHT30;62093;37.614;15.072;2023-06-14T10:08:59;21.81;68.78
73780;SHT30;62093;37.614;15.072;2023-06-14T10:11:26;21.82;68.78
73780;SHT30;62093;37.614;15.072;2023-06-14T10:13:54;21.82;68.75
73780;SHT30;62093;37.614;15.072;2023-06-14T10:16:28;21.84;68.79
73780;SHT30;62093;37.614;15.072;2023-06-14T10:24:42;21.85;68.80
73780;SHT30;62093;37.614;15.072;2023-06-14T10:27:09;21.84;68.74
73780;SHT30;62093;37.614;15.072;2023-06-14T10:30:02;21.84;68.78
73780;SHT30;62093;37.614;15.072;2023-06-14T10:32:29;21.85;68.74
73780;SHT30;62093;37.614;15.072;2023-06-14T10:34:59;21.85;68.74
73780;SHT30;62093;37.614;15.072;2023-06-14T10:37:26;21.84;68.77
73780;SHT30;62093;37.614;15.072;2023-06-14T10:39:53;21.85;68.75
73780;SHT30;62093;37.614;15.072;2023-06-14T10:42:19;21.87;68.77
73780;SHT30;62093;37.614;15.072;2023-06-14T10:44:49;21.87;68.73
73780;SHT30;62093;37.614;15.072;2023-06-14T10:47:25;21.85;68.74
73780;SHT30;62093;37.614;15.072;2023-06-14T10:49:56;21.87;68.77
73780;SHT30;62093;37.614;15.072;2023-06-14T10:52:26;21.85;68.78
73780;SHT30;62093;37.614;15.072;2023-06-14T10:57:43;21.88;68.75
73780;SHT30;62093;37.614;15.072;2023-06-14T11:00:12;21.89;68.76
73780;SHT30;62093;37.614;15.072;2023-06-14T11:05:29;21.85;68.75
73780;SHT30;62093;37.614;15.072;2023-06-14T11:10:41;21.85;68.75
73780;SHT30;62093;37.614;15.072;2023-06-14T11:13:08;21.88;68.77
73780;SHT30;62093;37.614;15.072;2023-06-14T11:15:38;21.88;68.77
73780;SHT30;62093;37.614;15.072;2023-06-14T11:18:07;21.87;68.75
73780;SHT30;62093;37.614;15.072;2023-06-14T11:20:35;21.88;68.77
73780;SHT30;62093;37.614;15.072;2023-06-14T11:23:03;21.85;68.77
73780;SHT30;62093;37.614;15.072;2023-06-14T11:25:29;21.87;68.75
73780;SHT30;62093;37.614;15.072;2023-06-14T11:27:55;21.87;68.76
73780;SHT30;62093;37.614;15.072;2023-06-14T11:30:22;21.87;68.77
73780;SHT30;62093;37.614;15.072;2023-06-14T11:32:49;21.88;68.77
73780;SHT30;62093;37.614;15.072;2023-06-14T11:35:16;21.89;68.79
73780;SHT30;62093;37.614;15.072;2023-06-14T11:37:43;21.89;68.81
73780;SHT30;62093;37.614;15.072;2023-06-14T11:40:11;21.91;68.79
73780;SHT30;62093;37.614;15.072;2023-06-14T11:42:40;21.88;68.79
73780;SHT30;62093;37.614;15.072;2023-06-14T11:45:11;21.89;68.73
73780;SHT30;62093;37.614;15.072;2023-06-14T11:47:39;21.91;68.75
73780;SHT30;62093;37.614;15.072;2023-06-14T11:50:07;21.88;68.75
73780;SHT30;62093;37.614;15.072;2023-06-14T11:52:34;21.91;68.75
73780;SHT30;62093;37.614;15.072;2023-06-14T11:55:01;21.91;68.75
73780;SHT30;62093;37.614;15.072;2023-06-14T11:57:28;21.92;68.71
73780;SHT30;62093;37.614;15.072;2023-06-14T11:59:54;21.91;68.72
73780;SHT30;62093;37.614;15.072;2023-06-14T12:02:21;21.91;68.78
73780;SHT30;62093;37.614;15.072;2023-06-14T12:04:48;21.91;68.88
73780;SHT30;62093;37.614;15.072;2023-06-14T12:07:15;21.95;68.90
73780;SHT30;62093;37.614;15.072;2023-06-14T12:09:41;21.91;68.88
73780;SHT30;62093;37.614;15.072;2023-06-14T12:12:11;21.92;68.80
73780;SHT30;62093;37.614;15.072;2023-06-14T12:14:37;21.92;68.79
73780;SHT30;62093;37.614;15.072;2023-06-14T12:17:07;21.94;68.78
73780;SHT30;62093;37.614;15.072;2023-06-14T12:19:33;21.94;68.78
73780;SHT30;62093;37.614;15.072;2023-06-14T12:22:09;21.91;68.80
73780;SHT30;62093;37.614;15.072;2023-06-14T12:24:35;21.92;68.78
73780;SHT30;62093;37.614;15.072;2023-06-14T12:27:01;21.92;68.81
73780;SHT30;62093;37.614;15.072;2023-06-14T12:29:30;21.92;68.80
73780;SHT30;62093;37.614;15.072;2023-06-14T12:31:56;21.91;68.78
73780;SHT30;62093;37.614;15.072;2023-06-14T12:34:26;21.94;68.78
73780;SHT30;62093;37.614;15.072;2023-06-14T12:36:53;21.89;68.78
73780;SHT30;62093;37.614;15.072;2023-06-14T12:39:20;21.91;68.76
73780;SHT30;62093;37.614;15.072;2023-06-14T12:41:46;21.91;68.78
73780;SHT30;62093;37.614;15.072;2023-06-14T12:44:13;21.89;68.86
73780;SHT30;62093;37.614;15.072;2023-06-14T12:46:39;21.91;68.82
73780;SHT30;62093;37.614;15.072;2023-06-14T12:49:07;21.91;68.80
73780;SHT30;62093;37.614;15.072;2023-06-14T12:51:33;21.92;68.82
73780;SHT30;62093;37.614;15.072;2023-06-14T12:53:59;21.91;68.86
73780;SHT30;62093;37.614;15.072;2023-06-14T12:56:24;21.91;68.84
73780;SHT30;62093;37.614;15.072;2023-06-14T12:58:52;21.91;68.87
73780;SHT30;62093;37.614;15.072;2023-06-14T13:01:18;21.91;68.85
73780;SHT30;62093;37.614;15.072;2023-06-14T13:03:46;21.91;68.87
73780;SHT30;62093;37.614;15.072;2023-06-14T13:06:12;21.91;68.91
73780;SHT30;62093;37.614;15.072;2023-06-14T13:08:37;21.91;68.90
73780;SHT30;62093;37.614;15.072;2023-06-14T13:11:03;21.92;68.89
73780;SHT30;62093;37.614;15.072;2023-06-14T13:13:29;21.92;68.95
73780;SHT30;62093;37.614;15.072;2023-06-14T13:15:55;21.91;68.89
73780;SHT30;62093;37.614;15.072;2023-06-14T13:18:20;21.92;68.89
73780;SHT30;62093;37.614;15.072;2023-06-14T13:20:46;21.89;68.91
73780;SHT30;62093;37.614;15.072;2023-06-14T13:23:12;21.89;68.91
73780;SHT30;62093;37.614;15.072;2023-06-14T13:25:39;21.94;68.94
73780;SHT30;62093;37.614;15.072;2023-06-14T13:28:05;21.91;68.93
73780;SHT30;62093;37.614;15.072;2023-06-14T13:30:32;21.91;68.95
73780;SHT30;62093;37.614;15.072;2023-06-14T13:32:59;21.88;68.93
73780;SHT30;62093;37.614;15.072;2023-06-14T13:35:25;21.89;68.93
73780;SHT30;62093;37.614;15.072;2023-06-14T13:37:51;21.91;68.94
73780;SHT30;62093;37.614;15.072;2023-06-14T13:40:18;21.91;68.97
73780;SHT30;62093;37.614;15.072;2023-06-14T13:42:46;21.92;68.98
73780;SHT30;62093;37.614;15.072;2023-06-14T13:45:13;21.89;68.95
73780;SHT30;62093;37.614;15.072;2023-06-14T13:47:39;21.89;68.98
73780;SHT30;62093;37.614;15.072;2023-06-14T13:50:05;21.91;69.00
73780;SHT30;62093;37.614;15.072;2023-06-14T13:52:31;21.88;68.95
73780;SHT30;62093;37.614;15.072;2023-06-14T13:54:57;21.89;68.94
73780;SHT30;62093;37.614;15.072;2023-06-14T13:57:23;21.89;68.97
73780;SHT30;62093;37.614;15.072;2023-06-14T13:59:48;21.91;68.98
73780;SHT30;62093;37.614;15.072;2023-06-14T14:02:15;21.89;69.02
73780;SHT30;62093;37.614;15.072;2023-06-14T14:04:41;21.91;69.01
73780;SHT30;62093;37.614;15.072;2023-06-14T14:07:07;21.88;69.07
73780;SHT30;62093;37.614;15.072;2023-06-14T14:09:34;21.89;69.00
73780;SHT30;62093;37.614;15.072;2023-06-14T14:12:01;21.88;69.01
73780;SHT30;62093;37.614;15.072;2023-06-14T14:14:28;21.87;69.02
73780;SHT30;62093;37.614;15.072;2023-06-14T14:16:54;21.88;69.03
73780;SHT30;62093;37.614;15.072;2023-06-14T14:19:21;21.87;69.05
73780;SHT30;62093;37.614;15.072;2023-06-14T14:21:47;21.84;69.03
73780;SHT30;62093;37.614;15.072;2023-06-14T14:24:13;21.88;69.03
73780;SHT30;62093;37.614;15.072;2023-06-14T14:26:39;21.85;69.04
73780;SHT30;62093;37.614;15.072;2023-06-14T14:29:05;21.87;69.07
73780;SHT30;62093;37.614;15.072;2023-06-14T14:31:31;21.84;69.06
73780;SHT30;62093;37.614;15.072;2023-06-14T14:33:57;21.87;69.10
73780;SHT30;62093;37.614;15.072;2023-06-14T14:36:23;21.85;69.09
73780;SHT30;62093;37.614;15.072;2023-06-14T14:38:49;21.87;69.08
73780;SHT30;62093;37.614;15.072;2023-06-14T14:41:17;21.85;69.11
73780;SHT30;62093;37.614;15.072;2023-06-14T14:43:43;21.85;69.08
73780;SHT30;62093;37.614;15.072;2023-06-14T14:46:09;21.87;69.10
73780;SHT30;62093;37.614;15.072;2023-06-14T14:48:35;21.84;69.10
73780;SHT30;62093;37.614;15.072;2023-06-14T14:51:00;21.85;69.15
73780;SHT30;62093;37.614;15.072;2023-06-14T14:53:27;21.84;69.13
73780;SHT30;62093;37.614;15.072;2023-06-14T14:55:53;21.87;69.11
73780;SHT30;62093;37.614;15.072;2023-06-14T14:58:19;21.84;69.17
73780;SHT30;62093;37.614;15.072;2023-06-14T15:00:45;21.84;69.18
73780;SHT30;62093;37.614;15.072;2023-06-14T15:03:13;21.84;69.16
73780;SHT30;62093;37.614;15.072;2023-06-14T15:05:39;21.84;69.13
73780;SHT30;62093;37.614;15.072;2023-06-14T15:08:05;21.82;69.16
73780;SHT30;62093;37.614;15.072;2023-06-14T15:10:39;21.82;69.17
73780;SHT30;62093;37.614;15.072;2023-06-14T15:13:08;21.81;69.16
73780;SHT30;62093;37.614;15.072;2023-06-14T15:15:35;21.85;69.18
73780;SHT30;62093;37.614;15.072;2023-06-14T15:18:01;21.81;69.16
73780;SHT30;62093;37.614;15.072;2023-06-14T15:20:27;21.82;69.21
73780;SHT30;62093;37.614;15.072;2023-06-14T15:22:53;21.81;69.23
73780;SHT30;62093;37.614;15.072;2023-06-14T15:25:28;21.81;69.23
73780;SHT30;62093;37.614;15.072;2023-06-14T15:27:55;21.81;69.23
73780;SHT30;62093;37.614;15.072;2023-06-14T15:30:21;21.79;69.23